createdAt,value
2017-09-03T00:02:11.384Z,41.93
2017-09-03T00:04:44.782Z,41.96
2017-09-03T00:07:16.832Z,41.65
2017-09-03T00:09:52.467Z,41.73
2017-09-03T00:12:26.570Z,41.91
2017-09-03T00:14:59.353Z,42.07
2017-09-03T00:17:34.069Z,42.08
2017-09-03T00:20:06.351Z,42.27
2017-09-03T00:22:37.913Z,42.16
2017-09-03T00:25:09.672Z,42.26
2017-09-03T00:27:41.449Z,42.03
2017-09-03T00:30:13.602Z,42.31
2017-09-03T00:32:46.244Z,42.43
2017-09-03T00:35:18.304Z,42.49
2017-09-03T00:37:50.273Z,42.44
2017-09-03T00:40:27.105Z,42.12
2017-09-03T00:42:58.939Z,42.13
2017-09-03T00:45:30.645Z,41.87
2017-09-03T00:48:13.678Z,41.83
2017-09-03T00:54:12.643Z,42.02
2017-09-03T00:56:55.391Z,41.82
2017-09-03T00:59:27.933Z,41.86
2017-09-03T01:02:21.324Z,41.92
2017-09-03T01:04:55.168Z,41.98
2017-09-03T01:07:27.766Z,42.11
2017-09-03T01:09:59.526Z,41.98
2017-09-03T01:12:39.821Z,42.14
2017-09-03T01:15:11.272Z,42.13
2017-09-03T01:17:49.955Z,42.26
2017-09-03T01:20:23.990Z,42.33
2017-09-03T01:22:55.318Z,42.51
2017-09-03T01:25:30.875Z,42.57
2017-09-03T01:28:04.118Z,42.95
2017-09-03T01:30:37.812Z,42.89
2017-09-03T01:33:11.569Z,42.96
2017-09-03T01:35:45.452Z,43.02
2017-09-03T01:38:17.328Z,42.88
2017-09-03T01:40:51.046Z,42.65
2017-09-03T01:43:24.797Z,42.70
2017-09-03T01:45:58.627Z,42.41
2017-09-03T01:48:32.866Z,42.54
2017-09-03T01:51:07.797Z,42.64
2017-09-03T01:53:46.454Z,42.55
2017-09-03T01:56:20.700Z,42.38
2017-09-03T01:58:52.365Z,42.37
2017-09-03T02:01:24.807Z,42.39
2017-09-03T02:03:55.906Z,42.42
2017-09-03T02:06:27.241Z,42.43
2017-09-03T02:08:59.692Z,42.56
2017-09-03T02:11:31.848Z,42.38
2017-09-03T02:14:03.721Z,42.35
2017-09-03T02:16:36.248Z,42.17
2017-09-03T02:19:10.084Z,42.26
2017-09-03T02:21:41.153Z,42.29
2017-09-03T02:24:13.077Z,42.08
2017-09-03T02:26:44.888Z,42.14
2017-09-03T02:29:16.946Z,42.15
2017-09-03T02:31:48.233Z,42.42
2017-09-03T02:34:21.359Z,42.33
2017-09-03T02:36:53.104Z,42.55
2017-09-03T02:39:28.175Z,42.56
2017-09-03T02:42:00.465Z,42.33
2017-09-03T02:44:31.910Z,42.58
2017-09-03T02:47:03.875Z,42.48
2017-09-03T02:49:35.890Z,42.32
2017-09-03T02:52:14.594Z,42.38
2017-09-03T02:54:57.570Z,42.15
2017-09-03T02:57:29.896Z,42.09
2017-09-03T03:00:16.357Z,41.77
2017-09-03T03:03:14.228Z,41.85
2017-09-03T03:05:56.437Z,41.96
2017-09-03T03:08:33.748Z,41.86
2017-09-03T03:11:23.963Z,41.84
2017-09-03T03:13:57.218Z,42.00
2017-09-03T03:19:30.452Z,42.12
2017-09-03T03:22:14.309Z,42.01
2017-09-03T03:24:55.865Z,42.09
2017-09-03T03:27:30.487Z,42.20
2017-09-03T03:30:05.028Z,42.10
2017-09-03T03:32:40.015Z,42.12
2017-09-03T03:35:19.234Z,42.19
2017-09-03T03:38:02.308Z,42.28
2017-09-03T03:40:44.995Z,42.26
2017-09-03T03:43:33.208Z,42.02
2017-09-03T03:46:20.360Z,42.55
2017-09-03T03:49:00.710Z,42.23
2017-09-03T03:51:37.378Z,41.78
2017-09-03T03:54:14.331Z,41.75
2017-09-03T03:57:12.960Z,42.10
2017-09-03T03:59:50.443Z,41.76
2017-09-03T04:02:28.771Z,41.97
2017-09-03T04:05:07.813Z,41.78
2017-09-03T04:07:44.473Z,41.82
2017-09-03T04:10:24.512Z,41.60
2017-09-03T04:13:19.868Z,41.60
2017-09-03T04:16:05.850Z,41.41
2017-09-03T04:18:43.146Z,41.30
2017-09-03T04:21:34.578Z,41.53
2017-09-03T04:24:14.001Z,41.46
2017-09-03T04:26:57.952Z,41.33
2017-09-03T04:29:40.670Z,41.74
2017-09-03T04:32:17.380Z,41.60
2017-09-03T04:34:52.746Z,41.79
2017-09-03T04:37:27.646Z,41.67
2017-09-03T04:40:03.492Z,41.89
2017-09-03T04:42:34.944Z,41.62
2017-09-03T04:45:09.226Z,42.04
2017-09-03T04:47:43.672Z,41.86
2017-09-03T04:50:32.947Z,41.69
2017-09-03T04:53:15.162Z,41.62
2017-09-03T04:56:03.934Z,41.63
2017-09-03T04:58:50.135Z,41.50
2017-09-03T05:01:48.912Z,41.49
2017-09-03T05:04:30.307Z,41.48
2017-09-03T05:07:07.332Z,41.70
2017-09-03T05:09:45.106Z,41.80
2017-09-03T05:12:28.349Z,41.78
2017-09-03T05:15:22.562Z,41.50
2017-09-03T05:18:02.987Z,41.55
2017-09-03T05:20:45.613Z,41.63
2017-09-03T05:23:32.234Z,41.65
2017-09-03T05:26:11.347Z,41.19
2017-09-03T05:28:53.543Z,41.77
2017-09-03T05:31:33.861Z,41.86
2017-09-03T05:34:16.644Z,42.02
2017-09-03T05:36:50.368Z,41.98
2017-09-03T05:39:23.301Z,41.92
2017-09-03T05:41:55.492Z,41.72
2017-09-03T05:44:29.878Z,41.86
2017-09-03T05:47:01.435Z,41.75
2017-09-03T05:49:33.261Z,41.73
2017-09-03T05:52:04.513Z,41.96
2017-09-03T05:54:37.516Z,42.16
2017-09-03T05:57:10.226Z,42.00
2017-09-03T05:59:43.335Z,42.05
2017-09-03T06:02:15.088Z,42.25
2017-09-03T06:04:47.648Z,42.18
2017-09-03T06:07:19.121Z,42.38
2017-09-03T06:09:52.697Z,42.27
2017-09-03T06:12:25.990Z,42.29
2017-09-03T06:14:57.932Z,42.37
2017-09-03T06:17:34.118Z,42.56
2017-09-03T06:20:07.349Z,42.63
2017-09-03T06:22:39.131Z,43.13
2017-09-03T06:25:15.026Z,42.85
2017-09-03T06:27:47.398Z,42.92
2017-09-03T06:30:19.294Z,42.88
2017-09-03T06:32:52.676Z,42.90
2017-09-03T06:35:36.112Z,43.04
2017-09-03T06:38:19.347Z,42.99
2017-09-03T06:40:56.438Z,42.46
2017-09-03T06:43:32.413Z,42.73
2017-09-03T06:46:38.555Z,42.64
2017-09-03T06:49:24.571Z,42.60
2017-09-03T06:52:19.877Z,42.40
2017-09-03T06:55:00.731Z,42.36
2017-09-03T06:57:38.076Z,42.71
2017-09-03T07:00:20.551Z,42.59
2017-09-03T07:03:11.772Z,42.54
2017-09-03T07:05:46.723Z,42.57
2017-09-03T07:08:31.382Z,42.21
2017-09-03T07:11:14.513Z,42.34
2017-09-03T07:13:59.730Z,42.20
2017-09-03T07:16:35.858Z,42.13
2017-09-03T07:19:13.481Z,42.00
2017-09-03T07:21:55.565Z,41.79
2017-09-03T07:24:57.554Z,42.05
2017-09-03T07:27:31.836Z,41.00
2017-09-03T07:30:15.616Z,41.44
2017-09-03T07:32:52.065Z,42.66
2017-09-03T07:35:39.389Z,45.19
2017-09-03T07:38:19.446Z,45.34
2017-09-03T07:40:56.557Z,45.00
2017-09-03T07:43:37.214Z,45.18
2017-09-03T07:49:10.626Z,44.68
2017-09-03T07:51:59.845Z,44.70
2017-09-03T07:54:40.129Z,46.53
2017-09-03T07:57:18.802Z,45.51
2017-09-03T08:08:21.565Z,44.58
2017-09-03T08:10:58.646Z,44.62
2017-09-03T08:13:34.511Z,44.19
2017-09-03T08:16:43.643Z,44.07
2017-09-03T08:24:23.628Z,43.84
2017-09-03T08:26:58.420Z,44.13
2017-09-03T08:29:35.684Z,43.94
2017-09-03T08:32:36.199Z,43.62
2017-09-03T08:35:23.981Z,43.54
2017-09-03T08:43:03.218Z,43.42
2017-09-03T08:45:45.941Z,43.62
2017-09-03T08:48:27.842Z,43.53
2017-09-03T08:55:58.530Z,43.38
2017-09-03T08:58:36.228Z,43.84
2017-09-03T09:01:30.402Z,44.21
2017-09-03T09:04:06.997Z,43.70
2017-09-03T09:06:44.595Z,43.29
2017-09-03T09:09:23.421Z,42.88
2017-09-03T09:12:02.152Z,42.40
2017-09-03T09:14:36.347Z,42.45
2017-09-03T09:17:13.888Z,42.33
2017-09-03T09:19:56.681Z,42.02
2017-09-03T09:22:40.369Z,41.45
2017-09-03T09:25:16.901Z,41.48
2017-09-03T09:28:07.812Z,41.51
2017-09-03T09:30:44.810Z,41.32
2017-09-03T09:33:34.606Z,40.74
2017-09-03T09:36:12.689Z,40.51
